sensor_id;sensor_type;location;lat;lon;timestamp;P1;durP1;ratioP1;P2;durP2;ratioP2
84711;SDS011;74937;44.534;18.684;2023-12-20T00:00:57;167.18;;;67.22;;
84711;SDS011;74937;44.534;18.684;2023-12-20T00:03:23;185.10;;;71.82;;
84711;SDS011;74937;44.534;18.684;2023-12-20T00:05:49;163.75;;;69.93;;
84711;SDS011;74937;44.534;18.684;2023-12-20T00:08:15;180.60;;;73.10;;
84711;SDS011;74937;44.534;18.684;2023-12-20T00:10:41;205.88;;;84.63;;
84711;SDS011;74937;44.534;18.684;2023-12-20T00:13:07;228.23;;;89.22;;
84711;SDS011;74937;44.534;18.684;2023-12-20T00:15:33;244.93;;;92.53;;
84711;SDS011;74937;44.534;18.684;2023-12-20T00:17:59;219.63;;;86.30;;
84711;SDS011;74937;44.534;18.684;2023-12-20T00:22:51;181.95;;;69.60;;
84711;SDS011;74937;44.534;18.684;2023-12-20T00:25:17;177.50;;;74.40;;
84711;SDS011;74937;44.534;18.684;2023-12-20T00:27:43;187.35;;;76.18;;
84711;SDS011;74937;44.534;18.684;2023-12-20T00:30:09;208.07;;;84.55;;
84711;SDS011;74937;44.534;18.684;2023-12-20T00:32:35;178.10;;;69.18;;
84711;SDS011;74937;44.534;18.684;2023-12-20T00:35:01;176.93;;;73.05;;
84711;SDS011;74937;44.534;18.684;2023-12-20T00:37:26;185.43;;;75.97;;
84711;SDS011;74937;44.534;18.684;2023-12-20T00:39:52;170.45;;;70.25;;
84711;SDS011;74937;44.534;18.684;2023-12-20T00:42:18;169.60;;;68.50;;
84711;SDS011;74937;44.534;18.684;2023-12-20T00:44:44;148.50;;;62.53;;
84711;SDS011;74937;44.534;18.684;2023-12-20T00:47:10;158.60;;;61.30;;
84711;SDS011;74937;44.534;18.684;2023-12-20T00:49:35;182.15;;;71.15;;
84711;SDS011;74937;44.534;18.684;2023-12-20T00:52:01;201.52;;;77.45;;
84711;SDS011;74937;44.534;18.684;2023-12-20T00:54:26;256.27;;;101.43;;
84711;SDS011;74937;44.534;18.684;2023-12-20T00:56:52;248.13;;;98.13;;
84711;SDS011;74937;44.534;18.684;2023-12-20T00:59:18;257.70;;;100.30;;
84711;SDS011;74937;44.534;18.684;2023-12-20T01:01:44;216.40;;;83.95;;
84711;SDS011;74937;44.534;18.684;2023-12-20T01:04:10;211.27;;;83.43;;
84711;SDS011;74937;44.534;18.684;2023-12-20T01:06:35;163.38;;;69.40;;
84711;SDS011;74937;44.534;18.684;2023-12-20T01:09:01;170.98;;;67.68;;
84711;SDS011;74937;44.534;18.684;2023-12-20T01:11:28;165.95;;;70.93;;
84711;SDS011;74937;44.534;18.684;2023-12-20T01:13:53;185.15;;;74.50;;
84711;SDS011;74937;44.534;18.684;2023-12-20T01:16:19;171.55;;;68.07;;
84711;SDS011;74937;44.534;18.684;2023-12-20T01:18:44;172.43;;;69.22;;
84711;SDS011;74937;44.534;18.684;2023-12-20T01:21:10;152.18;;;67.05;;
84711;SDS011;74937;44.534;18.684;2023-12-20T01:23:36;156.02;;;58.45;;
84711;SDS011;74937;44.534;18.684;2023-12-20T01:26:01;156.10;;;61.50;;
84711;SDS011;74937;44.534;18.684;2023-12-20T01:28:30;138.80;;;53.78;;
84711;SDS011;74937;44.534;18.684;2023-12-20T01:30:57;139.27;;;57.47;;
84711;SDS011;74937;44.534;18.684;2023-12-20T01:33:22;150.15;;;59.63;;
84711;SDS011;74937;44.534;18.684;2023-12-20T01:35:48;194.32;;;77.78;;
84711;SDS011;74937;44.534;18.684;2023-12-20T01:38:14;201.80;;;81.82;;
84711;SDS011;74937;44.534;18.684;2023-12-20T01:40:40;170.20;;;69.70;;
84711;SDS011;74937;44.534;18.684;2023-12-20T01:43:09;177.60;;;68.18;;
84711;SDS011;74937;44.534;18.684;2023-12-20T01:45:35;211.10;;;83.30;;
84711;SDS011;74937;44.534;18.684;2023-12-20T01:48:01;199.73;;;78.68;;
84711;SDS011;74937;44.534;18.684;2023-12-20T01:50:29;202.38;;;80.10;;
84711;SDS011;74937;44.534;18.684;2023-12-20T01:52:56;193.10;;;77.53;;
84711;SDS011;74937;44.534;18.684;2023-12-20T01:55:27;133.63;;;57.90;;
84711;SDS011;74937;44.534;18.684;2023-12-20T01:57:55;132.20;;;59.28;;
84711;SDS011;74937;44.534;18.684;2023-12-20T02:00:22;137.00;;;58.60;;
84711;SDS011;74937;44.534;18.684;2023-12-20T02:02:48;147.60;;;55.80;;
84711;SDS011;74937;44.534;18.684;2023-12-20T02:05:18;129.20;;;51.42;;
84711;SDS011;74937;44.534;18.684;2023-12-20T02:07:43;109.47;;;44.55;;
84711;SDS011;74937;44.534;18.684;2023-12-20T02:10:09;90.70;;;40.45;;
84711;SDS011;74937;44.534;18.684;2023-12-20T02:12:35;96.00;;;41.20;;
84711;SDS011;74937;44.534;18.684;2023-12-20T02:15:01;88.00;;;41.97;;
84711;SDS011;74937;44.534;18.684;2023-12-20T02:17:27;111.47;;;49.45;;
84711;SDS011;74937;44.534;18.684;2023-12-20T02:19:53;125.50;;;50.90;;
84711;SDS011;74937;44.534;18.684;2023-12-20T02:22:18;141.45;;;57.80;;
84711;SDS011;74937;44.534;18.684;2023-12-20T02:24:44;146.10;;;55.85;;
84711;SDS011;74937;44.534;18.684;2023-12-20T02:27:09;186.43;;;77.28;;
84711;SDS011;74937;44.534;18.684;2023-12-20T02:29:35;195.43;;;75.93;;
84711;SDS011;74937;44.534;18.684;2023-12-20T02:32:01;170.05;;;67.53;;
84711;SDS011;74937;44.534;18.684;2023-12-20T02:34:28;145.27;;;59.83;;
84711;SDS011;74937;44.534;18.684;2023-12-20T02:36:54;148.45;;;62.10;;
84711;SDS011;74937;44.534;18.684;2023-12-20T02:39:20;142.38;;;57.88;;
84711;SDS011;74937;44.534;18.684;2023-12-20T02:41:47;127.28;;;54.17;;
84711;SDS011;74937;44.534;18.684;2023-12-20T02:44:14;108.10;;;43.72;;
84711;SDS011;74937;44.534;18.684;2023-12-20T02:46:39;106.82;;;42.22;;
84711;SDS011;74937;44.534;18.684;2023-12-20T02:49:05;103.68;;;46.63;;
84711;SDS011;74937;44.534;18.684;2023-12-20T02:51:31;108.65;;;46.60;;
84711;SDS011;74937;44.534;18.684;2023-12-20T02:53:57;105.25;;;47.47;;
84711;SDS011;74937;44.534;18.684;2023-12-20T02:56:23;135.52;;;52.70;;
84711;SDS011;74937;44.534;18.684;2023-12-20T02:58:48;120.18;;;48.70;;
84711;SDS011;74937;44.534;18.684;2023-12-20T03:01:14;132.18;;;56.40;;
84711;SDS011;74937;44.534;18.684;2023-12-20T03:03:40;141.30;;;59.17;;
84711;SDS011;74937;44.534;18.684;2023-12-20T03:06:05;132.27;;;55.33;;
84711;SDS011;74937;44.534;18.684;2023-12-20T03:08:31;127.13;;;53.28;;
84711;SDS011;74937;44.534;18.684;2023-12-20T03:10:58;111.07;;;46.67;;
84711;SDS011;74937;44.534;18.684;2023-12-20T03:13:25;111.03;;;44.22;;
84711;SDS011;74937;44.534;18.684;2023-12-20T03:15:50;104.43;;;46.88;;
84711;SDS011;74937;44.534;18.684;2023-12-20T03:18:16;103.32;;;42.90;;
84711;SDS011;74937;44.534;18.684;2023-12-20T03:20:42;82.88;;;37.42;;
84711;SDS011;74937;44.534;18.684;2023-12-20T03:23:07;89.43;;;36.97;;
84711;SDS011;74937;44.534;18.684;2023-12-20T03:25:33;101.57;;;43.97;;
84711;SDS011;74937;44.534;18.684;2023-12-20T03:27:59;89.85;;;38.83;;
84711;SDS011;74937;44.534;18.684;2023-12-20T03:30:25;74.60;;;32.33;;
84711;SDS011;74937;44.534;18.684;2023-12-20T03:32:51;73.53;;;34.10;;
84711;SDS011;74937;44.534;18.684;2023-12-20T03:35:16;75.63;;;30.45;;
84711;SDS011;74937;44.534;18.684;2023-12-20T03:37:42;81.97;;;35.97;;
84711;SDS011;74937;44.534;18.684;2023-12-20T03:40:08;87.10;;;36.53;;
84711;SDS011;74937;44.534;18.684;2023-12-20T03:42:34;72.78;;;32.60;;
84711;SDS011;74937;44.534;18.684;2023-12-20T03:45:00;82.47;;;33.60;;
84711;SDS011;74937;44.534;18.684;2023-12-20T03:47:25;68.57;;;32.50;;
84711;SDS011;74937;44.534;18.684;2023-12-20T03:49:51;80.97;;;34.85;;
84711;SDS011;74937;44.534;18.684;2023-12-20T03:52:18;81.88;;;36.78;;
84711;SDS011;74937;44.534;18.684;2023-12-20T03:54:43;90.68;;;39.03;;
84711;SDS011;74937;44.534;18.684;2023-12-20T03:57:09;102.93;;;41.50;;
84711;SDS011;74937;44.534;18.684;2023-12-20T03:59:35;105.40;;;43.25;;
84711;SDS011;74937;44.534;18.684;2023-12-20T04:04:27;97.70;;;42.50;;
84711;SDS011;74937;44.534;18.684;2023-12-20T04:06:53;94.22;;;40.40;;
84711;SDS011;74937;44.534;18.684;2023-12-20T04:09:18;106.15;;;41.05;;
84711;SDS011;74937;44.534;18.684;2023-12-20T04:11:44;98.95;;;42.08;;
84711;SDS011;74937;44.534;18.684;2023-12-20T04:14:09;96.35;;;38.90;;
84711;SDS011;74937;44.534;18.684;2023-12-20T04:16:35;76.00;;;33.55;;
84711;SDS011;74937;44.534;18.684;2023-12-20T04:19:01;86.72;;;35.72;;
84711;SDS011;74937;44.534;18.684;2023-12-20T04:21:27;94.80;;;41.22;;
84711;SDS011;74937;44.534;18.684;2023-12-20T04:23:53;82.45;;;35.10;;
84711;SDS011;74937;44.534;18.684;2023-12-20T04:26:18;98.25;;;43.60;;
84711;SDS011;74937;44.534;18.684;2023-12-20T04:28:44;99.35;;;40.40;;
84711;SDS011;74937;44.534;18.684;2023-12-20T04:31:10;93.15;;;41.45;;
84711;SDS011;74937;44.534;18.684;2023-12-20T04:33:35;85.53;;;38.30;;
84711;SDS011;74937;44.534;18.684;2023-12-20T04:36:01;83.95;;;36.03;;
84711;SDS011;74937;44.534;18.684;2023-12-20T04:38:27;80.97;;;33.90;;
84711;SDS011;74937;44.534;18.684;2023-12-20T04:40:52;67.63;;;31.77;;
84711;SDS011;74937;44.534;18.684;2023-12-20T04:43:18;106.28;;;44.15;;
84711;SDS011;74937;44.534;18.684;2023-12-20T04:45:44;109.15;;;44.30;;
84711;SDS011;74937;44.534;18.684;2023-12-20T04:48:09;99.65;;;41.50;;
84711;SDS011;74937;44.534;18.684;2023-12-20T04:50:35;84.57;;;38.65;;
84711;SDS011;74937;44.534;18.684;2023-12-20T04:53:01;89.90;;;37.75;;
84711;SDS011;74937;44.534;18.684;2023-12-20T04:55:26;79.35;;;33.33;;
84711;SDS011;74937;44.534;18.684;2023-12-20T04:57:52;103.18;;;41.15;;
84711;SDS011;74937;44.534;18.684;2023-12-20T05:00:17;86.25;;;38.63;;
84711;SDS011;74937;44.534;18.684;2023-12-20T05:02:43;93.10;;;40.67;;
84711;SDS011;74937;44.534;18.684;2023-12-20T05:05:28;86.82;;;36.78;;
84711;SDS011;74937;44.534;18.684;2023-12-20T05:07:53;88.05;;;35.67;;
84711;SDS011;74937;44.534;18.684;2023-12-20T05:10:19;88.50;;;34.42;;
84711;SDS011;74937;44.534;18.684;2023-12-20T05:12:45;95.50;;;42.55;;
84711;SDS011;74937;44.534;18.684;2023-12-20T05:15:10;94.95;;;39.17;;
84711;SDS011;74937;44.534;18.684;2023-12-20T05:17:36;96.70;;;39.75;;
84711;SDS011;74937;44.534;18.684;2023-12-20T05:20:02;100.20;;;43.13;;
84711;SDS011;74937;44.534;18.684;2023-12-20T05:22:27;102.85;;;42.92;;
84711;SDS011;74937;44.534;18.684;2023-12-20T05:24:53;102.78;;;40.40;;
84711;SDS011;74937;44.534;18.684;2023-12-20T05:27:19;99.95;;;42.10;;
84711;SDS011;74937;44.534;18.684;2023-12-20T05:29:45;94.47;;;38.65;;
84711;SDS011;74937;44.534;18.684;2023-12-20T05:32:10;95.00;;;39.70;;
84711;SDS011;74937;44.534;18.684;2023-12-20T05:34:36;118.55;;;44.40;;
84711;SDS011;74937;44.534;18.684;2023-12-20T05:37:01;115.20;;;47.92;;
84711;SDS011;74937;44.534;18.684;2023-12-20T05:39:27;133.27;;;53.55;;
84711;SDS011;74937;44.534;18.684;2023-12-20T05:41:53;129.48;;;47.78;;
84711;SDS011;74937;44.534;18.684;2023-12-20T05:44:19;103.60;;;41.28;;
84711;SDS011;74937;44.534;18.684;2023-12-20T05:46:44;92.32;;;36.33;;
84711;SDS011;74937;44.534;18.684;2023-12-20T05:49:10;93.45;;;35.13;;
84711;SDS011;74937;44.534;18.684;2023-12-20T05:51:36;80.80;;;33.40;;
84711;SDS011;74937;44.534;18.684;2023-12-20T05:54:01;70.60;;;34.22;;
84711;SDS011;74937;44.534;18.684;2023-12-20T05:56:27;86.53;;;38.55;;
84711;SDS011;74937;44.534;18.684;2023-12-20T05:58:53;82.43;;;33.65;;
84711;SDS011;74937;44.534;18.684;2023-12-20T06:01:18;87.72;;;35.72;;
84711;SDS011;74937;44.534;18.684;2023-12-20T06:03:44;81.10;;;36.17;;
84711;SDS011;74937;44.534;18.684;2023-12-20T06:06:11;93.70;;;39.55;;
84711;SDS011;74937;44.534;18.684;2023-12-20T06:11:03;124.28;;;51.22;;
84711;SDS011;74937;44.534;18.684;2023-12-20T06:13:29;137.70;;;56.38;;
84711;SDS011;74937;44.534;18.684;2023-12-20T06:15:55;146.88;;;57.03;;
84711;SDS011;74937;44.534;18.684;2023-12-20T06:18:21;128.38;;;48.33;;
84711;SDS011;74937;44.534;18.684;2023-12-20T06:20:46;120.13;;;49.22;;
84711;SDS011;74937;44.534;18.684;2023-12-20T06:23:12;108.80;;;45.00;;
84711;SDS011;74937;44.534;18.684;2023-12-20T06:25:38;86.97;;;38.42;;
84711;SDS011;74937;44.534;18.684;2023-12-20T06:28:04;114.18;;;43.83;;
84711;SDS011;74937;44.534;18.684;2023-12-20T06:30:30;105.30;;;41.45;;
84711;SDS011;74937;44.534;18.684;2023-12-20T06:32:57;91.10;;;37.60;;
84711;SDS011;74937;44.534;18.684;2023-12-20T06:35:23;91.45;;;41.33;;
84711;SDS011;74937;44.534;18.684;2023-12-20T06:37:49;110.07;;;45.05;;
84711;SDS011;74937;44.534;18.684;2023-12-20T06:40:15;127.90;;;52.03;;
84711;SDS011;74937;44.534;18.684;2023-12-20T06:42:41;146.85;;;57.65;;
84711;SDS011;74937;44.534;18.684;2023-12-20T06:45:07;199.80;;;73.93;;
84711;SDS011;74937;44.534;18.684;2023-12-20T06:47:33;211.07;;;81.82;;
84711;SDS011;74937;44.534;18.684;2023-12-20T06:49:59;205.43;;;78.03;;
84711;SDS011;74937;44.534;18.684;2023-12-20T06:52:25;205.20;;;79.05;;
84711;SDS011;74937;44.534;18.684;2023-12-20T06:54:51;183.63;;;72.80;;
84711;SDS011;74937;44.534;18.684;2023-12-20T06:57:17;178.85;;;72.43;;
84711;SDS011;74937;44.534;18.684;2023-12-20T06:59:45;165.77;;;66.75;;
84711;SDS011;74937;44.534;18.684;2023-12-20T07:02:10;115.25;;;49.38;;
84711;SDS011;74937;44.534;18.684;2023-12-20T07:04:39;119.25;;;50.38;;
84711;SDS011;74937;44.534;18.684;2023-12-20T07:07:06;107.03;;;43.70;;
84711;SDS011;74937;44.534;18.684;2023-12-20T07:09:32;113.38;;;47.75;;
84711;SDS011;74937;44.534;18.684;2023-12-20T07:11:58;106.95;;;46.08;;
84711;SDS011;74937;44.534;18.684;2023-12-20T07:14:24;120.22;;;55.35;;
84711;SDS011;74937;44.534;18.684;2023-12-20T07:16:50;131.90;;;56.53;;
84711;SDS011;74937;44.534;18.684;2023-12-20T07:19:16;134.00;;;56.13;;
84711;SDS011;74937;44.534;18.684;2023-12-20T07:21:42;177.80;;;72.72;;
84711;SDS011;74937;44.534;18.684;2023-12-20T07:24:07;231.90;;;91.53;;
84711;SDS011;74937;44.534;18.684;2023-12-20T07:26:33;211.10;;;84.40;;
84711;SDS011;74937;44.534;18.684;2023-12-20T07:29:00;191.13;;;74.85;;
84711;SDS011;74937;44.534;18.684;2023-12-20T07:31:25;184.10;;;73.43;;
84711;SDS011;74937;44.534;18.684;2023-12-20T07:33:51;142.77;;;60.53;;
84711;SDS011;74937;44.534;18.684;2023-12-20T07:36:17;151.20;;;62.67;;
84711;SDS011;74937;44.534;18.684;2023-12-20T07:38:42;160.82;;;67.38;;
84711;SDS011;74937;44.534;18.684;2023-12-20T07:43:35;106.38;;;48.53;;
84711;SDS011;74937;44.534;18.684;2023-12-20T07:46:07;93.85;;;46.50;;
84711;SDS011;74937;44.534;18.684;2023-12-20T07:48:34;101.60;;;48.42;;
84711;SDS011;74937;44.534;18.684;2023-12-20T07:51:01;121.45;;;54.88;;
84711;SDS011;74937;44.534;18.684;2023-12-20T07:55:53;155.43;;;69.22;;
84711;SDS011;74937;44.534;18.684;2023-12-20T07:58:19;135.55;;;61.17;;
84711;SDS011;74937;44.534;18.684;2023-12-20T08:00:45;163.90;;;76.35;;
84711;SDS011;74937;44.534;18.684;2023-12-20T08:03:10;171.70;;;80.05;;
84711;SDS011;74937;44.534;18.684;2023-12-20T08:05:36;180.15;;;81.10;;
84711;SDS011;74937;44.534;18.684;2023-12-20T08:08:05;205.77;;;89.05;;
84711;SDS011;74937;44.534;18.684;2023-12-20T08:10:31;260.20;;;103.32;;
84711;SDS011;74937;44.534;18.684;2023-12-20T08:12:57;263.20;;;110.13;;
84711;SDS011;74937;44.534;18.684;2023-12-20T08:15:23;313.30;;;128.93;;
84711;SDS011;74937;44.534;18.684;2023-12-20T08:17:49;273.92;;;117.22;;
84711;SDS011;74937;44.534;18.684;2023-12-20T08:20:18;244.25;;;107.32;;
84711;SDS011;74937;44.534;18.684;2023-12-20T08:22:44;214.32;;;95.90;;
84711;SDS011;74937;44.534;18.684;2023-12-20T08:25:09;186.00;;;83.25;;
84711;SDS011;74937;44.534;18.684;2023-12-20T08:27:39;157.75;;;74.18;;
84711;SDS011;74937;44.534;18.684;2023-12-20T08:30:07;135.48;;;65.57;;
84711;SDS011;74937;44.534;18.684;2023-12-20T08:32:34;129.38;;;64.68;;
84711;SDS011;74937;44.534;18.684;2023-12-20T08:35:00;117.20;;;58.95;;
84711;SDS011;74937;44.534;18.684;2023-12-20T08:37:26;120.45;;;63.50;;
84711;SDS011;74937;44.534;18.684;2023-12-20T08:39:51;128.98;;;63.42;;
84711;SDS011;74937;44.534;18.684;2023-12-20T08:42:17;119.82;;;63.22;;
84711;SDS011;74937;44.534;18.684;2023-12-20T08:44:43;118.45;;;63.08;;
84711;SDS011;74937;44.534;18.684;2023-12-20T08:47:08;120.82;;;62.92;;
84711;SDS011;74937;44.534;18.684;2023-12-20T08:49:38;118.50;;;61.25;;
84711;SDS011;74937;44.534;18.684;2023-12-20T08:52:04;117.35;;;61.38;;
84711;SDS011;74937;44.534;18.684;2023-12-20T08:54:30;127.90;;;64.93;;
84711;SDS011;74937;44.534;18.684;2023-12-20T08:56:56;142.20;;;71.70;;
84711;SDS011;74937;44.534;18.684;2023-12-20T08:59:22;187.50;;;87.05;;
84711;SDS011;74937;44.534;18.684;2023-12-20T09:01:48;192.80;;;96.93;;
84711;SDS011;74937;44.534;18.684;2023-12-20T09:04:19;198.50;;;94.05;;
84711;SDS011;74937;44.534;18.684;2023-12-20T09:06:45;241.63;;;115.10;;
84711;SDS011;74937;44.534;18.684;2023-12-20T09:09:11;250.50;;;118.70;;
84711;SDS011;74937;44.534;18.684;2023-12-20T09:11:39;230.15;;;106.78;;
84711;SDS011;74937;44.534;18.684;2023-12-20T09:14:04;176.15;;;87.72;;
84711;SDS011;74937;44.534;18.684;2023-12-20T09:16:30;101.32;;;51.92;;
84711;SDS011;74937;44.534;18.684;2023-12-20T09:18:56;80.13;;;42.30;;
84711;SDS011;74937;44.534;18.684;2023-12-20T09:21:23;66.72;;;34.88;;
84711;SDS011;74937;44.534;18.684;2023-12-20T09:23:49;69.85;;;39.22;;
84711;SDS011;74937;44.534;18.684;2023-12-20T09:26:14;67.78;;;36.90;;
84711;SDS011;74937;44.534;18.684;2023-12-20T09:28:40;69.35;;;37.88;;
84711;SDS011;74937;44.534;18.684;2023-12-20T09:31:07;67.35;;;35.58;;
84711;SDS011;74937;44.534;18.684;2023-12-20T09:33:33;70.20;;;38.83;;
84711;SDS011;74937;44.534;18.684;2023-12-20T09:35:59;78.28;;;44.72;;
84711;SDS011;74937;44.534;18.684;2023-12-20T09:38:25;80.75;;;44.42;;
84711;SDS011;74937;44.534;18.684;2023-12-20T09:40:50;88.10;;;49.22;;
84711;SDS011;74937;44.534;18.684;2023-12-20T09:43:18;235.40;;;84.20;;
84711;SDS011;74937;44.534;18.684;2023-12-20T09:45:46;296.58;;;111.65;;
84711;SDS011;74937;44.534;18.684;2023-12-20T09:48:12;342.88;;;140.23;;
84711;SDS011;74937;44.534;18.684;2023-12-20T09:50:41;307.88;;;133.75;;
84711;SDS011;74937;44.534;18.684;2023-12-20T09:53:07;281.83;;;121.95;;
84711;SDS011;74937;44.534;18.684;2023-12-20T09:55:35;263.58;;;116.55;;
84711;SDS011;74937;44.534;18.684;2023-12-20T09:58:02;213.35;;;93.38;;
84711;SDS011;74937;44.534;18.684;2023-12-20T10:00:28;226.95;;;102.18;;
84711;SDS011;74937;44.534;18.684;2023-12-20T10:02:58;233.90;;;104.22;;
84711;SDS011;74937;44.534;18.684;2023-12-20T10:05:31;170.30;;;85.05;;
84711;SDS011;74937;44.534;18.684;2023-12-20T10:07:58;201.80;;;91.97;;
84711;SDS011;74937;44.534;18.684;2023-12-20T10:10:24;200.63;;;90.60;;
84711;SDS011;74937;44.534;18.684;2023-12-20T10:13:00;179.85;;;79.55;;
84711;SDS011;74937;44.534;18.684;2023-12-20T10:15:26;165.85;;;81.43;;
84711;SDS011;74937;44.534;18.684;2023-12-20T10:17:52;187.07;;;91.55;;
84711;SDS011;74937;44.534;18.684;2023-12-20T10:20:19;181.25;;;87.50;;
84711;SDS011;74937;44.534;18.684;2023-12-20T10:22:46;169.02;;;83.63;;
84711;SDS011;74937;44.534;18.684;2023-12-20T10:25:12;169.10;;;81.05;;
84711;SDS011;74937;44.534;18.684;2023-12-20T10:27:38;167.95;;;82.53;;
84711;SDS011;74937;44.534;18.684;2023-12-20T10:30:04;149.77;;;72.63;;
84711;SDS011;74937;44.534;18.684;2023-12-20T10:32:30;157.93;;;83.13;;
84711;SDS011;74937;44.534;18.684;2023-12-20T10:34:56;164.38;;;80.05;;
84711;SDS011;74937;44.534;18.684;2023-12-20T10:37:22;162.88;;;84.15;;
84711;SDS011;74937;44.534;18.684;2023-12-20T10:39:52;167.00;;;81.70;;
84711;SDS011;74937;44.534;18.684;2023-12-20T10:42:21;167.77;;;79.80;;
84711;SDS011;74937;44.534;18.684;2023-12-20T10:47:17;173.05;;;86.43;;
84711;SDS011;74937;44.534;18.684;2023-12-20T10:49:43;186.40;;;91.10;;
84711;SDS011;74937;44.534;18.684;2023-12-20T10:52:10;206.00;;;95.78;;
84711;SDS011;74937;44.534;18.684;2023-12-20T10:54:37;188.02;;;89.78;;
84711;SDS011;74937;44.534;18.684;2023-12-20T10:57:04;187.00;;;89.15;;
84711;SDS011;74937;44.534;18.684;2023-12-20T10:59:36;184.63;;;91.07;;
84711;SDS011;74937;44.534;18.684;2023-12-20T11:02:04;186.88;;;86.50;;
84711;SDS011;74937;44.534;18.684;2023-12-20T11:04:44;188.80;;;88.20;;
84711;SDS011;74937;44.534;18.684;2023-12-20T11:07:31;195.57;;;97.35;;
84711;SDS011;74937;44.534;18.684;2023-12-20T11:10:10;208.18;;;98.90;;
84711;SDS011;74937;44.534;18.684;2023-12-20T11:12:49;181.82;;;84.72;;
84711;SDS011;74937;44.534;18.684;2023-12-20T11:15:38;191.77;;;94.13;;
84711;SDS011;74937;44.534;18.684;2023-12-20T11:18:04;203.35;;;98.32;;
84711;SDS011;74937;44.534;18.684;2023-12-20T11:20:38;201.63;;;97.15;;
84711;SDS011;74937;44.534;18.684;2023-12-20T11:23:05;196.70;;;93.30;;
84711;SDS011;74937;44.534;18.684;2023-12-20T11:25:48;210.65;;;96.22;;
84711;SDS011;74937;44.534;18.684;2023-12-20T11:28:20;220.27;;;101.05;;
84711;SDS011;74937;44.534;18.684;2023-12-20T11:30:51;293.88;;;146.55;;
84711;SDS011;74937;44.534;18.684;2023-12-20T11:33:24;296.85;;;145.20;;
84711;SDS011;74937;44.534;18.684;2023-12-20T11:35:52;274.02;;;122.32;;
84711;SDS011;74937;44.534;18.684;2023-12-20T11:38:21;263.85;;;119.30;;
84711;SDS011;74937;44.534;18.684;2023-12-20T11:40:50;272.05;;;122.15;;
84711;SDS011;74937;44.534;18.684;2023-12-20T11:43:31;232.65;;;109.43;;
84711;SDS011;74937;44.534;18.684;2023-12-20T11:46:07;214.15;;;98.03;;
84711;SDS011;74937;44.534;18.684;2023-12-20T11:48:35;228.25;;;108.57;;
84711;SDS011;74937;44.534;18.684;2023-12-20T11:51:08;216.18;;;100.70;;
84711;SDS011;74937;44.534;18.684;2023-12-20T11:53:35;201.90;;;98.43;;
84711;SDS011;74937;44.534;18.684;2023-12-20T11:56:02;218.38;;;102.72;;
84711;SDS011;74937;44.534;18.684;2023-12-20T11:58:29;206.90;;;96.40;;
84711;SDS011;74937;44.534;18.684;2023-12-20T12:00:55;182.52;;;86.00;;
84711;SDS011;74937;44.534;18.684;2023-12-20T12:03:21;168.52;;;81.20;;
84711;SDS011;74937;44.534;18.684;2023-12-20T12:05:49;153.77;;;76.60;;
84711;SDS011;74937;44.534;18.684;2023-12-20T12:08:15;131.70;;;63.85;;
84711;SDS011;74937;44.534;18.684;2023-12-20T12:10:42;201.52;;;89.70;;
84711;SDS011;74937;44.534;18.684;2023-12-20T12:13:09;190.38;;;87.72;;
84711;SDS011;74937;44.534;18.684;2023-12-20T12:15:35;188.30;;;87.63;;
84711;SDS011;74937;44.534;18.684;2023-12-20T12:18:02;173.63;;;81.90;;
84711;SDS011;74937;44.534;18.684;2023-12-20T12:20:27;167.52;;;83.93;;
84711;SDS011;74937;44.534;18.684;2023-12-20T12:23:05;166.27;;;79.72;;
84711;SDS011;74937;44.534;18.684;2023-12-20T12:28:00;180.93;;;80.22;;
84711;SDS011;74937;44.534;18.684;2023-12-20T12:30:26;202.27;;;94.63;;
84711;SDS011;74937;44.534;18.684;2023-12-20T12:32:52;205.95;;;88.80;;
84711;SDS011;74937;44.534;18.684;2023-12-20T12:35:18;193.75;;;90.10;;
84711;SDS011;74937;44.534;18.684;2023-12-20T12:37:45;101.20;;;51.45;;
84711;SDS011;74937;44.534;18.684;2023-12-20T12:40:11;115.43;;;56.20;;
84711;SDS011;74937;44.534;18.684;2023-12-20T12:42:38;117.35;;;56.65;;
84711;SDS011;74937;44.534;18.684;2023-12-20T12:47:30;150.27;;;67.15;;
84711;SDS011;74937;44.534;18.684;2023-12-20T12:49:56;159.77;;;74.68;;
84711;SDS011;74937;44.534;18.684;2023-12-20T12:52:22;134.73;;;63.75;;
84711;SDS011;74937;44.534;18.684;2023-12-20T12:54:48;134.40;;;62.03;;
84711;SDS011;74937;44.534;18.684;2023-12-20T12:57:14;117.38;;;56.15;;
84711;SDS011;74937;44.534;18.684;2023-12-20T12:59:44;106.85;;;50.42;;
84711;SDS011;74937;44.534;18.684;2023-12-20T13:02:14;123.65;;;60.58;;
84711;SDS011;74937;44.534;18.684;2023-12-20T13:04:41;140.05;;;65.53;;
84711;SDS011;74937;44.534;18.684;2023-12-20T13:07:08;93.70;;;49.85;;
84711;SDS011;74937;44.534;18.684;2023-12-20T13:09:37;114.05;;;53.50;;
84711;SDS011;74937;44.534;18.684;2023-12-20T13:12:04;123.35;;;59.03;;
84711;SDS011;74937;44.534;18.684;2023-12-20T13:14:34;118.72;;;59.40;;
84711;SDS011;74937;44.534;18.684;2023-12-20T13:17:02;131.32;;;61.10;;
84711;SDS011;74937;44.534;18.684;2023-12-20T13:19:29;123.32;;;61.47;;
84711;SDS011;74937;44.534;18.684;2023-12-20T13:21:55;130.82;;;64.60;;
84711;SDS011;74937;44.534;18.684;2023-12-20T13:24:21;157.20;;;68.10;;
84711;SDS011;74937;44.534;18.684;2023-12-20T13:26:47;152.25;;;67.88;;
84711;SDS011;74937;44.534;18.684;2023-12-20T13:29:12;138.50;;;64.60;;
84711;SDS011;74937;44.534;18.684;2023-12-20T13:31:38;139.15;;;66.95;;
84711;SDS011;74937;44.534;18.684;2023-12-20T13:36:30;109.47;;;52.90;;
84711;SDS011;74937;44.534;18.684;2023-12-20T13:38:56;155.05;;;71.88;;
84711;SDS011;74937;44.534;18.684;2023-12-20T13:41:22;140.25;;;66.07;;
84711;SDS011;74937;44.534;18.684;2023-12-20T13:43:48;148.32;;;70.60;;
84711;SDS011;74937;44.534;18.684;2023-12-20T13:46:14;168.98;;;79.78;;
84711;SDS011;74937;44.534;18.684;2023-12-20T13:48:39;168.57;;;78.57;;
84711;SDS011;74937;44.534;18.684;2023-12-20T13:51:05;191.38;;;85.22;;
84711;SDS011;74937;44.534;18.684;2023-12-20T13:53:31;173.90;;;86.72;;
84711;SDS011;74937;44.534;18.684;2023-12-20T13:55:57;170.88;;;79.63;;
84711;SDS011;74937;44.534;18.684;2023-12-20T13:58:23;188.45;;;86.97;;
84711;SDS011;74937;44.534;18.684;2023-12-20T14:00:48;101.25;;;46.10;;
84711;SDS011;74937;44.534;18.684;2023-12-20T14:03:14;55.30;;;26.35;;
84711;SDS011;74937;44.534;18.684;2023-12-20T14:05:40;37.80;;;20.58;;
84711;SDS011;74937;44.534;18.684;2023-12-20T14:08:06;24.42;;;13.63;;
84711;SDS011;74937;44.534;18.684;2023-12-20T14:12:58;17.38;;;9.13;;
84711;SDS011;74937;44.534;18.684;2023-12-20T14:15:23;13.98;;;8.27;;
84711;SDS011;74937;44.534;18.684;2023-12-20T14:17:50;12.50;;;7.82;;
84711;SDS011;74937;44.534;18.684;2023-12-20T14:20:16;12.95;;;7.88;;